Time;durP1;ratioP1;P1;durP2;ratioP2;P2;SDS_P1;SDS_P2;PMS_P1;PMS_P2;Temp;Humidity;BMP_temperature;BMP_pressure;BME280_temperature;BME280_humidity;BME280_pressure;Samples;Min_cycle;Max_cycle;Signal;HPM_P1;HPM_P2
2021/01/16 00:01:16;;;;;;;59.28;22.25;;;0.40;99.90;;;;;;4911447;29;20067;-91
2021/01/16 00:03:41;;;;;;;63.22;22.98;;;0.40;99.90;;;;;;4917396;29;20055;-89
2021/01/16 00:06:07;;;;;;;66.30;24.13;;;0.50;99.90;;;;;;4933137;29;20035;-89
2021/01/16 00:08:33;;;;;;;66.65;24.35;;;0.50;99.90;;;;;;4917915;29;20036;-91
2021/01/16 00:10:59;;;;;;;53.22;22.05;;;0.50;99.90;;;;;;4915423;29;20028;-90
2021/01/16 00:13:33;;;;;;;61.97;22.48;;;0.50;99.90;;;;;;4919946;29;20028;-90
2021/01/16 00:16:00;;;;;;;54.70;21.23;;;0.50;99.90;;;;;;4925409;29;20040;-90
2021/01/16 00:18:26;;;;;;;62.30;22.88;;;0.60;99.90;;;;;;4911313;29;20027;-91
2021/01/16 00:20:54;;;;;;;60.38;22.02;;;0.60;99.90;;;;;;4910507;29;20131;-90
2021/01/16 00:23:24;;;;;;;59.55;23.38;;;0.60;99.90;;;;;;4912878;29;20027;-90
2021/01/16 00:25:51;;;;;;;50.10;21.73;;;0.60;99.90;;;;;;4912282;29;20114;-90
2021/01/16 00:28:21;;;;;;;56.70;21.42;;;0.60;99.90;;;;;;4914373;29;20036;-90
2021/01/16 00:30:47;;;;;;;50.33;21.20;;;0.50;99.90;;;;;;4913914;29;20043;-90
2021/01/16 00:33:22;;;;;;;49.50;21.17;;;0.60;99.90;;;;;;4914585;29;20036;-90
2021/01/16 00:35:49;;;;;;;51.45;23.10;;;0.60;99.90;;;;;;4922294;29;20493;-91
2021/01/16 00:38:15;;;;;;;50.70;20.23;;;0.60;99.90;;;;;;4923162;29;20182;-90
2021/01/16 00:40:41;;;;;;;58.78;22.90;;;0.60;99.90;;;;;;4924359;29;20477;-89
2021/01/16 00:43:11;;;;;;;55.60;22.38;;;0.60;99.90;;;;;;4923196;29;20035;-90
2021/01/16 00:45:37;;;;;;;63.72;22.80;;;0.60;99.90;;;;;;4938214;29;20043;-89
2021/01/16 00:48:13;;;;;;;55.53;24.55;;;0.60;99.90;;;;;;4921829;29;20529;-90
2021/01/16 00:50:39;;;;;;;61.78;22.90;;;0.60;99.90;;;;;;4922143;29;20027;-89
2021/01/16 00:53:05;;;;;;;67.05;24.02;;;0.60;99.90;;;;;;4921731;29;20039;-90
2021/01/16 00:55:31;;;;;;;53.90;24.67;;;0.70;99.90;;;;;;4921422;29;20155;-90
2021/01/16 00:57:57;;;;;;;53.92;22.90;;;0.70;99.90;;;;;;4921316;29;20390;-90
2021/01/16 01:00:25;;;;;;;56.33;22.70;;;0.70;99.90;;;;;;4921720;29;20036;-90
2021/01/16 01:02:51;;;;;;;50.75;20.67;;;0.70;99.90;;;;;;4937185;29;20058;-91
2021/01/16 01:05:20;;;;;;;52.30;21.20;;;0.70;99.90;;;;;;4921313;29;20464;-88
2021/01/16 01:07:47;;;;;;;50.35;20.83;;;0.70;99.90;;;;;;4921017;29;20035;-90
2021/01/16 01:10:16;;;;;;;34.58;14.70;;;0.80;99.90;;;;;;4921238;29;20031;-89
2021/01/16 01:12:42;;;;;;;53.40;21.95;;;0.80;99.90;;;;;;4920769;29;20035;-88
2021/01/16 01:15:08;;;;;;;40.75;17.33;;;0.80;99.90;;;;;;4921311;29;20508;-90
2021/01/16 01:17:34;;;;;;;46.47;19.10;;;0.80;99.90;;;;;;4921316;29;20040;-91
2021/01/16 01:20:00;;;;;;;49.53;18.25;;;0.80;99.90;;;;;;4920745;29;20035;-89
2021/01/16 01:22:30;;;;;;;49.85;20.40;;;0.80;99.90;;;;;;4920670;29;20031;-91
2021/01/16 01:24:58;;;;;;;45.17;18.65;;;0.80;99.90;;;;;;4920619;29;20028;-91
2021/01/16 01:27:24;;;;;;;38.63;15.93;;;0.80;99.90;;;;;;4920838;29;20035;-91
2021/01/16 01:29:50;;;;;;;40.08;17.95;;;0.80;99.90;;;;;;4920744;29;20024;-93
2021/01/16 01:32:16;;;;;;;44.78;18.67;;;0.90;99.90;;;;;;4919764;29;20051;-91
2021/01/16 01:34:42;;;;;;;51.35;20.85;;;0.90;99.90;;;;;;4920664;29;20102;-92
2021/01/16 01:37:07;;;;;;;56.33;22.08;;;0.90;99.90;;;;;;4920632;29;20470;-92
2021/01/16 01:39:33;;;;;;;45.88;19.92;;;0.90;99.90;;;;;;4920612;29;20023;-91
2021/01/16 01:41:59;;;;;;;52.85;22.20;;;0.90;99.90;;;;;;4920746;29;20031;-92
2021/01/16 01:44:24;;;;;;;52.35;19.70;;;1.00;99.90;;;;;;4920333;29;20042;-91
2021/01/16 01:46:50;;;;;;;41.78;15.30;;;0.90;99.90;;;;;;4920441;29;20032;-92
2021/01/16 01:49:16;;;;;;;47.35;18.60;;;1.00;99.90;;;;;;4936401;29;20037;-92
2021/01/16 01:51:43;;;;;;;47.30;18.23;;;1.00;99.90;;;;;;4920103;29;20031;-91
2021/01/16 01:54:10;;;;;;;44.50;19.60;;;1.00;99.90;;;;;;4920259;29;20027;-93
2021/01/16 01:56:38;;;;;;;41.47;17.08;;;1.00;99.90;;;;;;4920165;29;20039;-93
2021/01/16 01:59:06;;;;;;;48.25;18.10;;;1.00;99.90;;;;;;4920307;29;20031;-94
2021/01/16 02:01:38;;;;;;;40.08;16.67;;;1.10;99.90;;;;;;4919955;29;20047;-93
2021/01/16 02:04:07;;;;;;;47.17;18.48;;;1.00;99.90;;;;;;4935694;29;20062;-93
2021/01/16 02:06:32;;;;;;;46.00;20.02;;;1.10;99.90;;;;;;4919197;29;20462;-93
2021/01/16 02:08:58;;;;;;;50.65;19.33;;;1.10;99.90;;;;;;4920269;29;20083;-92
2021/01/16 02:11:24;;;;;;;47.90;20.73;;;1.10;99.90;;;;;;4920179;29;20079;-93
2021/01/16 02:13:49;;;;;;;45.47;19.45;;;1.10;99.90;;;;;;4919880;29;20042;-92
2021/01/16 02:16:36;;;;;;;35.55;15.32;;;1.20;99.90;;;;;;4919761;29;20130;-94
2021/01/16 02:19:06;;;;;;;49.65;17.88;;;1.20;99.90;;;;;;4935906;29;20034;-92
2021/01/16 02:21:35;;;;;;;37.42;15.20;;;1.20;99.90;;;;;;4919962;29;20046;-92
2021/01/16 02:24:12;;;;;;;45.83;19.02;;;1.20;99.90;;;;;;4919463;29;20091;-92
2021/01/16 02:26:46;;;;;;;32.85;12.18;;;1.20;99.90;;;;;;4919554;29;20036;-92
2021/01/16 02:29:13;;;;;;;32.55;13.85;;;1.30;99.90;;;;;;4919668;29;20117;-93
2021/01/16 02:31:59;;;;;;;42.67;18.20;;;1.30;99.90;;;;;;4919589;29;20481;-92
2021/01/16 02:34:46;;;;;;;37.95;15.45;;;1.30;99.90;;;;;;4919398;29;20028;-93
2021/01/16 02:37:26;;;;;;;40.03;16.67;;;1.30;99.90;;;;;;4919381;29;20036;-93
2021/01/16 02:40:07;;;;;;;38.58;16.88;;;1.40;99.90;;;;;;4919569;29;20079;-93
2021/01/16 02:43:01;;;;;;;42.28;18.67;;;1.40;99.90;;;;;;4919448;29;20051;-94
2021/01/16 02:45:32;;;;;;;39.55;16.77;;;1.40;99.90;;;;;;4919306;29;20074;-94
2021/01/16 02:48:23;;;;;;;42.58;18.65;;;1.40;99.90;;;;;;4919333;29;20032;-94
2021/01/16 02:50:54;;;;;;;38.28;17.58;;;1.50;99.90;;;;;;4919489;29;20370;-94
2021/01/16 02:53:22;;;;;;;48.63;20.25;;;1.50;99.90;;;;;;4919311;29;20631;-93
2021/01/16 02:55:50;;;;;;;45.60;19.83;;;1.50;99.90;;;;;;4919859;29;20039;-93
2021/01/16 02:58:19;;;;;;;40.28;16.75;;;1.50;99.90;;;;;;4919873;29;20119;-94
2021/01/16 03:00:46;;;;;;;45.55;20.95;;;1.50;99.90;;;;;;4935768;29;20039;-93
2021/01/16 03:03:12;;;;;;;40.53;19.50;;;1.50;99.90;;;;;;4922031;29;20040;-92
2021/01/16 03:05:38;;;;;;;43.25;21.58;;;1.50;99.90;;;;;;4919926;29;20086;-92
2021/01/16 03:08:04;;;;;;;47.85;19.42;;;1.60;99.90;;;;;;4921727;29;20043;-93
2021/01/16 03:10:31;;;;;;;40.10;15.80;;;1.50;99.90;;;;;;4942833;29;20163;-92
2021/01/16 03:12:57;;;;;;;42.42;19.55;;;1.50;99.90;;;;;;4942934;29;20016;-93
2021/01/16 03:15:24;;;;;;;36.08;16.13;;;1.60;99.90;;;;;;4937257;29;20036;-93
2021/01/16 03:17:52;;;;;;;42.67;18.33;;;1.60;99.90;;;;;;4951367;29;20043;-92
2021/01/16 03:20:20;;;;;;;47.85;19.30;;;1.60;99.90;;;;;;4925470;29;20031;-93
2021/01/16 03:22:49;;;;;;;51.25;20.23;;;1.60;99.90;;;;;;4921556;29;20063;-93
2021/01/16 03:25:21;;;;;;;44.88;19.70;;;1.60;99.90;;;;;;4920800;29;20083;-93
2021/01/16 03:27:48;;;;;;;39.03;16.73;;;1.60;99.90;;;;;;4919564;29;20345;-92
2021/01/16 03:30:15;;;;;;;38.15;18.20;;;1.60;99.90;;;;;;4919315;29;20027;-92
2021/01/16 03:32:46;;;;;;;37.30;17.65;;;1.60;99.90;;;;;;4919390;29;20023;-91
2021/01/16 03:35:16;;;;;;;39.10;19.25;;;1.60;99.90;;;;;;4935956;29;20039;-93
2021/01/16 03:37:44;;;;;;;37.60;18.63;;;1.60;99.90;;;;;;4919829;29;20036;-93
2021/01/16 03:40:10;;;;;;;22.92;11.30;;;1.60;99.90;;;;;;4919595;29;20103;-92
2021/01/16 03:42:37;;;;;;;27.27;12.70;;;1.60;99.90;;;;;;4919506;29;20032;-92
2021/01/16 03:45:08;;;;;;;29.77;12.98;;;1.60;99.90;;;;;;4919747;29;20035;-92
2021/01/16 03:47:33;;;;;;;;;;;1.60;99.90;;;;;;4920230;29;20561;-92
2021/01/16 03:49:59;;;;;;;26.52;13.63;;;1.50;99.90;;;;;;4935184;29;19911;-91
2021/01/16 03:52:30;;;;;;;20.20;9.38;;;1.50;99.90;;;;;;4918995;29;20043;-92
2021/01/16 03:54:56;;;;;;;18.35;9.15;;;1.50;99.90;;;;;;4919192;29;20562;-91
2021/01/16 03:57:23;;;;;;;23.35;12.63;;;1.60;99.90;;;;;;4925205;29;20032;-91
2021/01/16 03:59:49;;;;;;;22.38;10.07;;;1.50;99.90;;;;;;4922388;29;20028;-90
2021/01/16 04:02:16;;;;;;;19.38;9.60;;;1.50;99.90;;;;;;4921886;29;20142;-91
2021/01/16 04:04:42;;;;;;;16.58;8.73;;;1.60;99.90;;;;;;4922137;29;20023;-91
2021/01/16 04:07:08;;;;;;;17.77;10.15;;;1.60;99.90;;;;;;4922321;29;20553;-91
2021/01/16 04:09:33;;;;;;;15.27;7.78;;;1.60;99.90;;;;;;4922610;29;20512;-91
2021/01/16 04:11:59;;;;;;;18.23;9.93;;;1.60;99.90;;;;;;4922019;29;20023;-91
2021/01/16 04:14:25;;;;;;;17.00;8.68;;;1.60;99.90;;;;;;4921974;29;20039;-90
2021/01/16 04:16:50;;;;;;;15.35;8.80;;;1.60;99.90;;;;;;4922301;29;20039;-91
2021/01/16 04:19:16;;;;;;;16.27;8.93;;;1.60;99.90;;;;;;4922367;29;20035;-93
2021/01/16 04:21:42;;;;;;;15.00;8.05;;;1.60;99.90;;;;;;4922063;29;20409;-92
2021/01/16 04:24:07;;;;;;;16.50;8.95;;;1.70;99.90;;;;;;4921501;29;20265;-91
2021/01/16 04:26:33;;;;;;;16.00;8.25;;;1.70;99.90;;;;;;4921951;29;20035;-93
2021/01/16 04:28:59;;;;;;;9.98;5.13;;;1.70;99.90;;;;;;4921745;29;20031;-93
2021/01/16 04:31:25;;;;;;;12.93;6.82;;;1.70;99.90;;;;;;4921919;29;20079;-91
2021/01/16 04:33:50;;;;;;;15.93;9.30;;;1.70;99.90;;;;;;4922097;29;20038;-91
2021/01/16 04:36:16;;;;;;;12.07;6.75;;;1.70;99.90;;;;;;4937832;29;20505;-91
2021/01/16 04:38:41;;;;;;;13.02;6.60;;;1.70;99.90;;;;;;4907787;29;20056;-92
2021/01/16 04:41:09;;;;;;;12.85;7.43;;;1.70;99.90;;;;;;4903084;29;20036;-92
2021/01/16 04:43:35;;;;;;;12.57;7.78;;;1.70;99.90;;;;;;4903009;29;20028;-92
2021/01/16 04:46:06;;;;;;;6.63;3.83;;;1.70;99.90;;;;;;4902726;29;20364;-91
2021/01/16 04:48:36;;;;;;;16.27;7.78;;;1.80;99.90;;;;;;4902961;29;20083;-92
2021/01/16 04:51:03;;;;;;;16.40;7.97;;;1.80;99.90;;;;;;4902942;29;20630;-91
2021/01/16 04:53:40;;;;;;;13.73;6.30;;;1.80;99.90;;;;;;4902174;29;20032;-92
2021/01/16 04:56:09;;;;;;;6.00;3.58;;;1.80;99.90;;;;;;4902240;29;20455;-93
2021/01/16 04:58:39;;;;;;;8.25;4.45;;;1.80;99.90;;;;;;4902553;29;20028;-93
2021/01/16 05:01:08;;;;;;;9.98;6.15;;;1.80;99.90;;;;;;4902833;29;20036;-94
2021/01/16 05:03:38;;;;;;;10.43;5.80;;;1.80;99.90;;;;;;4918270;29;20032;-93
2021/01/16 05:06:08;;;;;;;11.20;5.63;;;1.90;99.90;;;;;;4901828;29;20028;-92
2021/01/16 05:08:37;;;;;;;8.32;4.80;;;1.80;99.90;;;;;;4901814;29;20028;-92
2021/01/16 05:11:06;;;;;;;9.43;5.30;;;1.90;99.90;;;;;;4902414;29;20029;-93
2021/01/16 05:13:44;;;;;;;9.13;5.22;;;1.90;99.90;;;;;;4901952;29;20028;-92
2021/01/16 05:16:14;;;;;;;9.73;4.22;;;1.90;99.90;;;;;;4901615;29;20070;-95
2021/01/16 05:18:44;;;;;;;7.30;4.28;;;1.90;99.90;;;;;;4901681;29;20409;-93
2021/01/16 05:21:11;;;;;;;5.32;3.33;;;1.90;99.90;;;;;;4917045;29;20047;-94
2021/01/16 05:23:42;;;;;;;8.55;3.85;;;1.90;99.90;;;;;;4901599;29;20059;-94
2021/01/16 05:26:08;;;;;;;6.50;3.72;;;1.90;99.90;;;;;;4901401;29;20063;-93
2021/01/16 05:28:34;;;;;;;6.60;3.05;;;1.90;99.90;;;;;;4901767;29;20073;-93
2021/01/16 05:31:04;;;;;;;6.07;3.70;;;1.90;99.90;;;;;;4901539;29;20091;-92
2021/01/16 05:33:35;;;;;;;4.97;3.13;;;2.00;99.90;;;;;;4901727;29;20028;-94
2021/01/16 05:36:04;;;;;;;5.60;3.30;;;1.90;99.90;;;;;;4901880;29;20176;-93
2021/01/16 05:38:41;;;;;;;2.72;2.35;;;2.00;99.90;;;;;;4917549;29;20497;-94
2021/01/16 05:41:11;;;;;;;3.67;2.22;;;2.00;99.90;;;;;;4901652;29;20024;-93
2021/01/16 05:43:40;;;;;;;4.07;2.42;;;2.00;99.90;;;;;;4901597;29;20059;-92
2021/01/16 05:46:10;;;;;;;3.70;2.22;;;2.00;99.90;;;;;;4901560;29;20028;-94
2021/01/16 05:48:36;;;;;;;2.75;2.10;;;2.00;99.90;;;;;;4901829;29;20076;-94
2021/01/16 05:51:02;;;;;;;3.40;2.03;;;2.00;99.90;;;;;;4901255;29;20569;-93
2021/01/16 05:53:29;;;;;;;3.70;2.60;;;2.00;99.90;;;;;;4917006;29;20400;-92
2021/01/16 05:55:56;;;;;;;3.17;2.03;;;2.00;99.90;;;;;;4901292;29;20043;-93
2021/01/16 05:58:26;;;;;;;3.90;2.65;;;2.00;99.90;;;;;;4901673;29;20024;-94
2021/01/16 06:00:52;;;;;;;4.20;2.28;;;2.00;99.90;;;;;;4901194;29;20080;-91
2021/01/16 06:03:19;;;;;;;1.88;1.55;;;2.00;99.90;;;;;;4900934;29;20048;-92
2021/01/16 06:05:50;;;;;;;5.80;1.77;;;2.00;99.90;;;;;;4901071;29;20119;-93
2021/01/16 06:08:20;;;;;;;3.72;2.10;;;2.00;99.90;;;;;;4901201;29;20020;-94
2021/01/16 06:10:55;;;;;;;3.70;2.93;;;2.00;99.90;;;;;;4916696;29;20036;-94
2021/01/16 06:13:25;;;;;;;5.05;2.72;;;1.90;99.90;;;;;;4900915;29;20036;-92
2021/01/16 06:15:54;;;;;;;3.30;2.03;;;1.90;99.90;;;;;;4900899;29;20051;-93
2021/01/16 06:18:28;;;;;;;2.53;2.03;;;1.90;99.90;;;;;;4910912;29;20024;-95
2021/01/16 06:20:55;;;;;;;4.05;2.90;;;1.90;99.90;;;;;;4940047;23;20051;-96
2021/01/16 06:23:25;;;;;;;5.07;2.80;;;1.90;99.90;;;;;;4930242;29;20024;-93
2021/01/16 06:25:53;;;;;;;3.40;2.60;;;1.90;99.90;;;;;;4948652;29;20023;-94
2021/01/16 06:28:22;;;;;;;4.15;2.88;;;1.90;99.90;;;;;;4935942;29;20120;-94
2021/01/16 06:30:53;;;;;;;2.97;2.28;;;1.90;99.90;;;;;;4929821;29;20401;-96
2021/01/16 06:33:28;;;;;;;4.35;2.47;;;1.80;99.90;;;;;;4931783;29;20024;-94
2021/01/16 06:36:04;;;;;;;5.15;2.95;;;1.80;99.90;;;;;;4946157;29;20043;-94
2021/01/16 06:38:36;;;;;;;4.60;2.65;;;1.80;99.90;;;;;;4930031;29;20031;-93
2021/01/16 06:41:12;;;;;;;2.88;2.00;;;1.80;99.90;;;;;;4928964;29;20470;-94
2021/01/16 06:43:44;;;;;;;3.72;2.47;;;1.80;99.90;;;;;;4934410;29;20028;-94
2021/01/16 06:46:17;;;;;;;4.97;2.88;;;1.80;99.90;;;;;;4923789;29;20059;-94
2021/01/16 06:48:44;;;;;;;4.63;3.25;;;1.80;99.90;;;;;;4930986;29;20026;-94
2021/01/16 06:51:32;;;;;;;4.22;2.58;;;1.90;99.90;;;;;;4945724;29;20111;-94
2021/01/16 06:54:04;;;;;;;4.50;2.85;;;1.80;99.90;;;;;;4928471;29;20488;-95
2021/01/16 06:56:32;;;;;;;4.10;2.53;;;1.80;99.90;;;;;;4937334;29;20058;-94
2021/01/16 06:58:59;;;;;;;5.00;2.70;;;1.80;99.90;;;;;;4957697;29;20023;-93
2021/01/16 07:01:31;;;;;;;3.85;2.47;;;1.80;99.90;;;;;;4942738;29;20028;-94
2021/01/16 07:04:04;;;;;;;4.25;2.25;;;1.80;99.90;;;;;;4937959;29;20020;-92
2021/01/16 07:06:46;;;;;;;3.58;2.45;;;1.80;99.90;;;;;;4920650;29;20023;-91
2021/01/16 07:09:20;;;;;;;4.28;2.50;;;1.80;99.90;;;;;;4907610;29;20032;-92
2021/01/16 07:11:56;;;;;;;4.90;2.78;;;1.80;99.90;;;;;;4910074;29;20023;-91
2021/01/16 07:14:22;;;;;;;2.92;1.83;;;1.80;99.90;;;;;;4911259;29;20024;-92
2021/01/16 07:16:49;;;;;;;3.13;2.38;;;1.90;99.90;;;;;;4915561;29;20044;-91
2021/01/16 07:19:23;;;;;;;4.00;2.60;;;1.80;99.90;;;;;;4913061;29;20481;-91
2021/01/16 07:21:50;;;;;;;3.25;2.25;;;1.80;99.90;;;;;;4909430;29;20047;-91
2021/01/16 07:24:17;;;;;;;4.60;2.33;;;1.80;99.90;;;;;;4908491;29;20028;-92
2021/01/16 07:26:50;;;;;;;2.42;1.77;;;1.80;99.90;;;;;;4910333;29;20032;-91
2021/01/16 07:29:16;;;;;;;2.97;2.17;;;1.80;99.90;;;;;;4903836;29;20068;-91
2021/01/16 07:31:47;;;;;;;3.15;2.00;;;1.80;99.90;;;;;;4910542;29;20020;-91
2021/01/16 07:34:13;;;;;;;2.75;2.03;;;1.90;99.90;;;;;;4913011;29;20040;-92
2021/01/16 07:36:40;;;;;;;3.22;1.80;;;1.80;99.90;;;;;;4912683;29;20044;-91
2021/01/16 07:39:11;;;;;;;3.20;1.98;;;1.80;99.90;;;;;;4911120;29;20228;-92
2021/01/16 07:41:38;;;;;;;6.07;2.53;;;1.80;99.90;;;;;;4917888;29;20032;-93
2021/01/16 07:44:09;;;;;;;2.78;2.00;;;1.90;99.90;;;;;;4921436;29;20039;-94
2021/01/16 07:46:36;;;;;;;3.17;2.08;;;1.90;99.90;;;;;;4922772;29;20081;-92
2021/01/16 07:49:04;;;;;;;3.95;2.83;;;1.90;99.90;;;;;;4926898;29;20489;-92
2021/01/16 07:51:36;;;;;;;2.97;2.00;;;1.90;99.90;;;;;;4931356;29;20030;-92
2021/01/16 07:54:04;;;;;;;4.30;1.98;;;1.90;99.90;;;;;;4937300;29;20038;-92
2021/01/16 07:56:43;;;;;;;5.25;2.63;;;1.90;99.90;;;;;;4929818;29;20508;-92
2021/01/16 07:59:19;;;;;;;3.00;1.98;;;1.90;99.90;;;;;;4935622;29;20095;-91
2021/01/16 08:02:12;;;;;;;3.30;2.28;;;1.90;99.90;;;;;;4935344;29;20036;-93
2021/01/16 08:04:52;;;;;;;2.47;1.83;;;1.90;99.90;;;;;;4934566;29;20038;-92
2021/01/16 08:07:41;;;;;;;4.25;2.00;;;1.90;99.90;;;;;;4939823;29;20173;-93
2021/01/16 08:10:13;;;;;;;2.50;1.90;;;1.90;99.90;;;;;;4950694;29;20035;-94
2021/01/16 08:12:45;;;;;;;3.28;1.88;;;1.90;99.90;;;;;;4934694;29;20043;-95
2021/01/16 08:15:17;;;;;;;3.20;2.15;;;1.90;99.90;;;;;;4923303;29;20760;-91
2021/01/16 08:17:46;;;;;;;5.38;2.10;;;1.90;99.90;;;;;;4935807;29;20024;-94
2021/01/16 08:20:16;;;;;;;2.70;2.00;;;1.90;99.90;;;;;;4912972;29;20112;-95
2021/01/16 08:22:51;;;;;;;2.30;1.70;;;1.90;99.90;;;;;;4915821;29;20032;-91
2021/01/16 08:25:22;;;;;;;2.35;1.60;;;1.90;99.90;;;;;;4931952;29;20501;-92
2021/01/16 08:27:57;;;;;;;1.83;1.45;;;1.90;99.90;;;;;;4916314;29;20024;-95
2021/01/16 08:30:26;;;;;;;1.67;1.48;;;1.90;99.90;;;;;;4916075;29;20042;-93
2021/01/16 08:33:10;;;;;;;2.42;1.50;;;1.90;99.90;;;;;;4915873;29;20032;-94
2021/01/16 08:35:39;;;;;;;1.75;1.55;;;1.90;99.90;;;;;;4915935;29;20040;-93
2021/01/16 08:38:17;;;;;;;1.83;1.40;;;1.90;99.90;;;;;;4915795;29;20030;-92
2021/01/16 08:41:07;;;;;;;1.83;1.40;;;2.00;99.90;;;;;;4913672;29;20384;-93
2021/01/16 08:43:50;;;;;;;1.73;1.38;;;2.00;99.90;;;;;;4918164;29;20059;-90
2021/01/16 08:46:24;;;;;;;2.25;1.42;;;2.00;99.90;;;;;;4916770;29;20047;-92
2021/01/16 08:49:05;;;;;;;1.73;1.42;;;2.00;99.90;;;;;;4916230;29;20039;-93
2021/01/16 08:51:32;;;;;;;;;;;2.00;99.90;;;;;;4915037;29;20044;-91
2021/01/16 08:54:17;;;;;;;1.63;1.17;;;2.00;99.90;;;;;;4907387;29;20001;-94
2021/01/16 08:56:54;;;;;;;1.48;1.30;;;2.00;99.90;;;;;;4923253;29;20032;-93
2021/01/16 08:59:30;;;;;;;1.88;1.33;;;2.00;99.90;;;;;;4921265;29;20015;-93
2021/01/16 09:02:17;;;;;;;3.35;1.50;;;2.00;99.90;;;;;;4916754;29;20032;-95
2021/01/16 09:04:44;;;;;;;1.98;1.30;;;2.00;99.90;;;;;;4921996;29;20024;-92
2021/01/16 09:07:23;;;;;;;2.00;1.40;;;2.00;99.90;;;;;;4923211;29;20032;-94
2021/01/16 09:10:08;;;;;;;1.13;1.00;;;2.00;99.90;;;;;;4936763;29;20024;-94
2021/01/16 09:12:35;;;;;;;1.25;1.13;;;2.00;99.90;;;;;;4939715;29;20016;-93
2021/01/16 09:15:19;;;;;;;1.67;1.35;;;2.00;99.90;;;;;;4912711;29;20028;-94
2021/01/16 09:18:06;;;;;;;2.33;1.70;;;2.00;99.90;;;;;;4909479;29;20301;-92
2021/01/16 09:20:50;;;;;;;1.58;1.23;;;2.10;99.90;;;;;;4906130;29;20052;-93
2021/01/16 09:23:19;;;;;;;1.17;1.05;;;2.10;99.90;;;;;;4922411;29;20052;-96
2021/01/16 09:25:53;;;;;;;3.50;1.60;;;2.10;99.90;;;;;;4911980;29;20040;-92
2021/01/16 09:28:51;;;;;;;1.33;1.10;;;2.20;99.90;;;;;;4917886;29;20024;-95
2021/01/16 09:31:31;;;;;;;1.23;1.13;;;2.20;99.90;;;;;;4882443;29;20051;-95
2021/01/16 09:34:08;;;;;;;1.30;1.20;;;2.30;99.90;;;;;;4910631;29;20035;-95
2021/01/16 09:36:57;;;;;;;2.97;1.42;;;2.40;99.90;;;;;;4924147;29;20045;-94
2021/01/16 09:39:31;;;;;;;2.00;1.38;;;2.40;99.90;;;;;;4908389;29;20024;-95
2021/01/16 09:41:59;;;;;;;3.75;1.70;;;2.40;99.90;;;;;;4925638;29;20031;-95
2021/01/16 09:44:40;;;;;;;2.75;1.80;;;2.50;99.90;;;;;;4911296;29;20490;-95
2021/01/16 09:47:32;;;;;;;1.58;1.27;;;2.50;99.90;;;;;;4912145;29;20040;-95
2021/01/16 09:50:04;;;;;;;1.70;1.42;;;2.50;99.90;;;;;;4922254;29;20168;-94
2021/01/16 09:52:30;;;;;;;2.13;1.80;;;2.40;99.90;;;;;;4913297;29;20031;-95
2021/01/16 09:54:56;;;;;;;2.35;1.77;;;2.40;99.90;;;;;;4925718;29;20115;-94
2021/01/16 09:57:34;;;;;;;3.08;2.20;;;2.50;99.90;;;;;;4918614;29;20123;-95
2021/01/16 10:00:09;;;;;;;1.95;1.65;;;2.50;99.90;;;;;;4917724;29;20040;-95
2021/01/16 10:02:39;;;;;;;5.63;3.38;;;2.50;99.90;;;;;;4923063;29;20040;-94
2021/01/16 10:05:09;;;;;;;6.70;4.20;;;2.50;99.90;;;;;;4929314;29;20063;-93
2021/01/16 10:07:44;;;;;;;5.63;3.70;;;2.50;99.90;;;;;;4930489;29;20024;-94
2021/01/16 10:10:17;;;;;;;7.13;3.50;;;2.50;99.90;;;;;;4922608;29;20035;-92
2021/01/16 10:12:44;;;;;;;5.85;4.05;;;2.50;99.90;;;;;;4912788;29;20035;-94
2021/01/16 10:15:16;;;;;;;6.70;4.07;;;2.60;99.90;;;;;;4904461;29;20179;-94
2021/01/16 10:17:47;;;;;;;22.38;12.20;;;2.60;99.90;;;;;;4910724;29;20028;-95
2021/01/16 10:20:16;;;;;;;17.92;9.95;;;2.60;99.90;;;;;;4912971;29;20048;-92
2021/01/16 10:25:15;;;;;;;13.70;7.03;;;2.60;99.90;;;;;;4874519;29;20502;-94
2021/01/16 10:27:44;;;;;;;8.25;4.35;;;2.70;99.90;;;;;;4914598;29;20515;-93
2021/01/16 10:30:29;;;;;;;15.48;8.10;;;2.70;99.90;;;;;;4914724;29;20028;-93
2021/01/16 10:32:56;;;;;;;13.30;6.63;;;2.70;99.90;;;;;;4935970;29;20036;-94
2021/01/16 10:35:23;;;;;;;13.63;7.13;;;2.70;99.90;;;;;;4921693;29;20044;-94
2021/01/16 10:37:51;;;;;;;15.00;7.95;;;2.70;99.90;;;;;;4911757;29;20493;-94
2021/01/16 10:40:19;;;;;;;17.77;9.65;;;2.70;99.90;;;;;;4912189;29;20031;-94
2021/01/16 10:42:55;;;;;;;15.18;9.07;;;2.80;99.90;;;;;;4912480;29;20032;-94
2021/01/16 10:45:23;;;;;;;17.42;8.93;;;2.80;99.90;;;;;;4913116;29;20023;-94
2021/01/16 10:47:50;;;;;;;28.17;12.32;;;2.80;99.90;;;;;;4909520;29;20028;-95
2021/01/16 10:50:39;;;;;;;35.25;15.10;;;2.90;99.90;;;;;;4910980;29;20032;-94
2021/01/16 10:53:06;;;;;;;27.67;12.80;;;3.00;99.90;;;;;;4924776;29;20030;-96
2021/01/16 10:56:15;;;;;;;37.60;17.75;;;3.10;99.90;;;;;;4913793;29;20032;-96
2021/01/16 10:58:50;;;;;;;22.73;11.13;;;3.30;99.90;;;;;;4870620;29;20407;-95
2021/01/16 11:01:44;;;;;;;23.95;12.30;;;3.30;99.90;;;;;;4873573;29;20028;-95
2021/01/16 11:04:34;;;;;;;17.95;10.15;;;3.40;99.90;;;;;;4879145;29;20036;-96
2021/01/16 11:07:02;;;;;;;20.70;10.65;;;3.50;99.90;;;;;;4849843;29;20057;-92
2021/01/16 11:09:33;;;;;;;23.15;10.95;;;3.50;99.90;;;;;;4847674;29;20037;-95
2021/01/16 11:12:07;;;;;;;26.98;13.30;;;3.60;99.90;;;;;;4860417;29;20033;-93
2021/01/16 11:14:41;;;;;;;24.38;8.90;;;3.60;99.90;;;;;;4866830;29;20037;-94
2021/01/16 11:17:09;;;;;;;28.10;11.23;;;3.60;99.90;;;;;;4842644;29;20153;-92
2021/01/16 11:19:47;;;;;;;24.88;11.00;;;3.70;99.90;;;;;;4842320;29;20029;-93
2021/01/16 11:22:22;;;;;;;24.95;10.60;;;3.80;99.90;;;;;;4851997;29;20140;-93
2021/01/16 11:24:54;;;;;;;27.33;10.98;;;3.80;99.90;;;;;;4842142;29;20033;-93
2021/01/16 11:27:30;;;;;;;20.92;10.00;;;3.90;99.90;;;;;;4863753;29;20025;-96
2021/01/16 11:30:06;;;;;;;21.83;10.05;;;4.00;99.90;;;;;;4877003;29;20025;-96
2021/01/16 11:33:23;;;;;;;24.42;8.02;;;4.10;99.90;;;;;;4882146;29;20587;-96
2021/01/16 11:35:55;;;;;;;14.75;7.47;;;4.20;99.90;;;;;;4870029;29;20150;-91
2021/01/16 11:38:51;;;;;;;20.48;8.55;;;4.30;99.90;;;;;;4882327;29;20047;-95
2021/01/16 11:42:08;;;;;;;;;;;;;;;;;;;;;
2021/01/16 11:45:03;;;;;;;19.02;7.72;;;4.50;99.90;;;;;;4891439;29;20044;-95
2021/01/16 11:48:03;;;;;;;18.30;6.63;;;4.60;99.90;;;;;;4878544;29;20033;-95
2021/01/16 11:51:20;;;;;;;19.45;6.97;;;4.70;99.90;;;;;;4882803;29;20041;-95
2021/01/16 12:01:09;;;;;;;12.10;4.90;;;4.80;99.90;;;;;;4863219;29;20072;-95
2021/01/16 12:32:55;;;;;;;23.77;5.10;;;5.30;99.90;;;;;;4843639;29;20543;-95
2021/01/16 12:35:36;;;;;;;22.67;5.57;;;5.30;99.90;;;;;;4827213;29;20052;-96
2021/01/16 12:38:04;;;;;;;;;;;5.40;99.90;;;;;;4874417;29;20037;-95
2021/01/16 12:40:37;;;;;;;23.92;4.20;;;5.40;99.90;;;;;;4885014;29;19911;-95
2021/01/16 12:43:15;;;;;;;26.45;4.00;;;5.40;99.90;;;;;;4902090;29;20130;-95
2021/01/16 12:45:53;;;;;;;17.80;3.92;;;5.40;99.90;;;;;;4879059;29;20029;-96
2021/01/16 12:52:47;;;;;;;18.70;3.67;;;5.40;99.90;;;;;;4903463;29;20073;-95
2021/01/16 12:55:29;;;;;;;18.08;3.35;;;5.40;99.90;;;;;;4885197;29;20040;-96
2021/01/16 12:58:32;;;;;;;16.90;3.20;;;5.50;99.90;;;;;;4902410;29;20044;-96
2021/01/16 13:06:17;;;;;;;21.15;3.28;;;5.60;99.90;;;;;;5340562;23;20076;-96
2021/01/16 13:09:07;;;;;;;10.50;2.83;;;5.60;99.90;;;;;;4909780;29;20028;-95
2021/01/16 13:11:36;;;;;;;13.77;2.83;;;5.60;99.90;;;;;;4902151;29;20040;-93
2021/01/16 13:14:08;;;;;;;21.42;4.05;;;5.70;99.90;;;;;;4901495;29;20037;-95
2021/01/16 13:16:51;;;;;;;17.83;3.05;;;5.70;99.90;;;;;;4905179;29;20047;-95
2021/01/16 13:19:20;;;;;;;15.00;2.83;;;5.70;99.90;;;;;;4902996;29;20028;-96
2021/01/16 13:21:51;;;;;;;19.52;3.40;;;5.80;99.90;;;;;;4921811;29;20187;-94
2021/01/16 13:24:32;;;;;;;12.40;4.20;;;5.80;99.90;;;;;;4920962;29;20055;-94
2021/01/16 13:27:06;;;;;;;16.23;3.35;;;5.80;99.90;;;;;;4938732;29;20063;-94
2021/01/16 13:29:35;;;;;;;16.15;2.40;;;5.90;99.90;;;;;;4935431;29;20019;-93
2021/01/16 13:35:52;;;;;;;16.02;2.33;;;5.90;99.90;;;;;;4912199;29;20039;-95
2021/01/16 13:38:49;;;;;;;11.50;2.45;;;5.90;99.90;;;;;;4926909;29;20028;-96
2021/01/16 13:41:46;;;;;;;13.18;3.47;;;5.90;99.90;;;;;;4927788;29;20063;-95
2021/01/16 13:44:27;;;;;;;18.08;2.75;;;5.90;99.90;;;;;;4916119;29;20104;-96
2021/01/16 13:46:56;;;;;;;11.20;2.13;;;5.90;99.90;;;;;;4943975;29;20028;-94
2021/01/16 13:49:36;;;;;;;15.40;2.47;;;5.80;99.90;;;;;;4935549;29;20031;-93
2021/01/16 13:52:13;;;;;;;19.27;3.33;;;5.80;99.90;;;;;;4937502;29;20032;-96
2021/01/16 13:54:41;;;;;;;13.63;2.83;;;5.80;99.90;;;;;;4931367;29;20170;-95
2021/01/16 13:57:21;;;;;;;14.05;2.63;;;5.80;99.90;;;;;;4937130;29;20035;-95
2021/01/16 13:59:54;;;;;;;18.23;2.72;;;5.80;99.90;;;;;;4928749;29;20027;-95
2021/01/16 14:02:28;;;;;;;13.05;2.40;;;5.80;99.90;;;;;;4910133;29;20046;-96
2021/01/16 14:04:55;;;;;;;11.48;2.35;;;5.70;99.90;;;;;;4922105;29;20040;-95
2021/01/16 14:07:34;;;;;;;16.02;2.42;;;5.80;99.90;;;;;;4926159;29;20494;-95
2021/01/16 14:10:04;;;;;;;9.00;2.20;;;5.70;99.90;;;;;;4921748;29;20022;-95